sensor_id;sensor_type;location;lat;lon;timestamp;P1;durP1;ratioP1;P2;durP2;ratioP2
50231;SDS011;36118;56.468;84.952;2023-05-07T00:03:55;27.15;;;16.60;;
50231;SDS011;36118;56.468;84.952;2023-05-07T00:08:59;30.83;;;16.30;;
50231;SDS011;36118;56.468;84.952;2023-05-07T00:14:03;33.67;;;16.27;;
50231;SDS011;36118;56.468;84.952;2023-05-07T00:19:06;23.33;;;15.98;;
50231;SDS011;36118;56.468;84.952;2023-05-07T00:24:08;23.88;;;15.02;;
50231;SDS011;36118;56.468;84.952;2023-05-07T00:29:11;24.40;;;16.15;;
50231;SDS011;36118;56.468;84.952;2023-05-07T00:34:14;21.90;;;16.30;;
50231;SDS011;36118;56.468;84.952;2023-05-07T00:39:17;26.95;;;16.17;;
50231;SDS011;36118;56.468;84.952;2023-05-07T00:44:20;25.23;;;16.33;;
50231;SDS011;36118;56.468;84.952;2023-05-07T00:49:25;27.88;;;16.77;;
50231;SDS011;36118;56.468;84.952;2023-05-07T00:54:41;29.52;;;17.20;;
50231;SDS011;36118;56.468;84.952;2023-05-07T00:59:44;26.15;;;17.17;;
50231;SDS011;36118;56.468;84.952;2023-05-07T01:04:47;31.30;;;17.15;;
50231;SDS011;36118;56.468;84.952;2023-05-07T01:09:50;27.05;;;17.17;;
50231;SDS011;36118;56.468;84.952;2023-05-07T01:14:53;27.45;;;18.08;;
50231;SDS011;36118;56.468;84.952;2023-05-07T01:19:57;34.15;;;17.60;;
50231;SDS011;36118;56.468;84.952;2023-05-07T01:25:00;32.38;;;18.27;;
50231;SDS011;36118;56.468;84.952;2023-05-07T01:30:06;34.22;;;17.77;;
50231;SDS011;36118;56.468;84.952;2023-05-07T01:35:11;32.22;;;18.58;;
50231;SDS011;36118;56.468;84.952;2023-05-07T01:40:15;34.15;;;18.85;;
50231;SDS011;36118;56.468;84.952;2023-05-07T01:45:18;36.20;;;18.40;;
50231;SDS011;36118;56.468;84.952;2023-05-07T01:50:22;32.08;;;19.08;;
50231;SDS011;36118;56.468;84.952;2023-05-07T01:55:25;37.83;;;19.70;;
50231;SDS011;36118;56.468;84.952;2023-05-07T02:00:28;32.80;;;19.50;;
50231;SDS011;36118;56.468;84.952;2023-05-07T02:05:31;32.78;;;19.20;;
50231;SDS011;36118;56.468;84.952;2023-05-07T02:10:54;36.35;;;20.15;;
50231;SDS011;36118;56.468;84.952;2023-05-07T02:15:59;36.90;;;20.25;;
50231;SDS011;36118;56.468;84.952;2023-05-07T02:21:02;41.45;;;18.52;;
50231;SDS011;36118;56.468;84.952;2023-05-07T02:26:06;47.45;;;19.45;;
50231;SDS011;36118;56.468;84.952;2023-05-07T02:31:10;37.20;;;19.48;;
50231;SDS011;36118;56.468;84.952;2023-05-07T02:36:13;44.33;;;20.65;;
50231;SDS011;36118;56.468;84.952;2023-05-07T02:41:23;38.03;;;19.88;;
50231;SDS011;36118;56.468;84.952;2023-05-07T02:46:26;40.05;;;19.73;;
50231;SDS011;36118;56.468;84.952;2023-05-07T02:51:36;34.75;;;19.83;;
50231;SDS011;36118;56.468;84.952;2023-05-07T02:56:45;36.08;;;19.70;;
50231;SDS011;36118;56.468;84.952;2023-05-07T03:01:48;45.30;;;20.73;;
50231;SDS011;36118;56.468;84.952;2023-05-07T03:06:51;34.33;;;18.52;;
50231;SDS011;36118;56.468;84.952;2023-05-07T03:11:54;43.13;;;20.75;;
50231;SDS011;36118;56.468;84.952;2023-05-07T03:16:57;34.38;;;19.58;;
50231;SDS011;36118;56.468;84.952;2023-05-07T03:22:00;43.33;;;20.73;;
50231;SDS011;36118;56.468;84.952;2023-05-07T03:27:03;36.42;;;19.92;;
50231;SDS011;36118;56.468;84.952;2023-05-07T03:32:06;33.28;;;19.55;;
50231;SDS011;36118;56.468;84.952;2023-05-07T03:37:11;36.38;;;19.85;;
50231;SDS011;36118;56.468;84.952;2023-05-07T03:42:14;30.25;;;19.60;;
50231;SDS011;36118;56.468;84.952;2023-05-07T03:47:17;29.27;;;19.40;;
50231;SDS011;36118;56.468;84.952;2023-05-07T03:52:21;40.05;;;20.60;;
50231;SDS011;36118;56.468;84.952;2023-05-07T03:57:31;34.60;;;18.63;;
50231;SDS011;36118;56.468;84.952;2023-05-07T04:02:34;32.30;;;19.27;;
50231;SDS011;36118;56.468;84.952;2023-05-07T04:07:39;36.83;;;20.53;;
50231;SDS011;36118;56.468;84.952;2023-05-07T04:12:42;38.17;;;20.40;;
50231;SDS011;36118;56.468;84.952;2023-05-07T04:17:50;33.55;;;20.75;;
50231;SDS011;36118;56.468;84.952;2023-05-07T04:22:56;33.28;;;19.33;;
50231;SDS011;36118;56.468;84.952;2023-05-07T04:27:59;32.38;;;19.35;;
50231;SDS011;36118;56.468;84.952;2023-05-07T04:33:04;30.33;;;19.83;;
50231;SDS011;36118;56.468;84.952;2023-05-07T04:38:10;33.85;;;19.40;;
50231;SDS011;36118;56.468;84.952;2023-05-07T04:43:13;37.63;;;20.80;;
50231;SDS011;36118;56.468;84.952;2023-05-07T04:48:21;31.25;;;19.08;;
50231;SDS011;36118;56.468;84.952;2023-05-07T04:53:26;28.35;;;19.00;;
50231;SDS011;36118;56.468;84.952;2023-05-07T04:58:30;30.75;;;20.50;;
50231;SDS011;36118;56.468;84.952;2023-05-07T05:03:34;27.75;;;19.23;;
50231;SDS011;36118;56.468;84.952;2023-05-07T05:08:37;33.70;;;19.80;;
50231;SDS011;36118;56.468;84.952;2023-05-07T05:13:40;28.02;;;17.77;;
50231;SDS011;36118;56.468;84.952;2023-05-07T05:18:48;61.17;;;18.00;;
50231;SDS011;36118;56.468;84.952;2023-05-07T05:23:53;27.27;;;15.27;;
50231;SDS011;36118;56.468;84.952;2023-05-07T05:28:59;26.77;;;14.52;;
50231;SDS011;36118;56.468;84.952;2023-05-07T05:34:04;28.92;;;14.43;;
50231;SDS011;36118;56.468;84.952;2023-05-07T05:39:07;57.35;;;15.35;;
50231;SDS011;36118;56.468;84.952;2023-05-07T05:44:10;29.70;;;14.27;;
50231;SDS011;36118;56.468;84.952;2023-05-07T05:49:15;27.80;;;13.20;;
50231;SDS011;36118;56.468;84.952;2023-05-07T05:54:19;25.35;;;13.88;;
50231;SDS011;36118;56.468;84.952;2023-05-07T05:59:22;27.95;;;12.52;;
50231;SDS011;36118;56.468;84.952;2023-05-07T06:04:27;30.90;;;14.65;;
50231;SDS011;36118;56.468;84.952;2023-05-07T06:09:31;28.85;;;15.95;;
50231;SDS011;36118;56.468;84.952;2023-05-07T06:14:35;29.75;;;14.43;;
50231;SDS011;36118;56.468;84.952;2023-05-07T06:19:38;34.58;;;14.73;;
50231;SDS011;36118;56.468;84.952;2023-05-07T06:24:42;27.30;;;13.75;;
50231;SDS011;36118;56.468;84.952;2023-05-07T06:29:47;37.78;;;14.77;;
50231;SDS011;36118;56.468;84.952;2023-05-07T06:34:52;24.40;;;12.98;;
50231;SDS011;36118;56.468;84.952;2023-05-07T06:39:55;27.48;;;12.00;;
50231;SDS011;36118;56.468;84.952;2023-05-07T06:45:01;30.55;;;13.05;;
50231;SDS011;36118;56.468;84.952;2023-05-07T06:50:06;26.50;;;12.97;;
50231;SDS011;36118;56.468;84.952;2023-05-07T06:55:10;28.73;;;13.73;;
50231;SDS011;36118;56.468;84.952;2023-05-07T07:00:13;23.65;;;13.40;;
50231;SDS011;36118;56.468;84.952;2023-05-07T07:05:27;29.90;;;13.17;;
50231;SDS011;36118;56.468;84.952;2023-05-07T07:10:32;19.00;;;13.00;;
50231;SDS011;36118;56.468;84.952;2023-05-07T07:15:36;28.10;;;14.37;;
50231;SDS011;36118;56.468;84.952;2023-05-07T07:20:39;24.98;;;13.15;;
50231;SDS011;36118;56.468;84.952;2023-05-07T07:25:43;39.25;;;14.77;;
50231;SDS011;36118;56.468;84.952;2023-05-07T07:30:46;24.83;;;13.20;;
50231;SDS011;36118;56.468;84.952;2023-05-07T07:35:50;23.70;;;13.57;;
50231;SDS011;36118;56.468;84.952;2023-05-07T07:40:53;23.55;;;13.80;;
50231;SDS011;36118;56.468;84.952;2023-05-07T07:45:58;28.67;;;14.70;;
50231;SDS011;36118;56.468;84.952;2023-05-07T07:51:01;36.53;;;16.25;;
50231;SDS011;36118;56.468;84.952;2023-05-07T07:56:08;31.38;;;16.15;;
50231;SDS011;36118;56.468;84.952;2023-05-07T08:01:11;37.63;;;16.92;;
50231;SDS011;36118;56.468;84.952;2023-05-07T08:06:17;23.50;;;15.65;;
50231;SDS011;36118;56.468;84.952;2023-05-07T08:11:21;45.15;;;18.02;;
50231;SDS011;36118;56.468;84.952;2023-05-07T08:16:25;33.08;;;17.05;;
50231;SDS011;36118;56.468;84.952;2023-05-07T08:21:28;27.45;;;16.90;;
50231;SDS011;36118;56.468;84.952;2023-05-07T08:26:34;26.80;;;17.25;;
50231;SDS011;36118;56.468;84.952;2023-05-07T08:31:38;38.30;;;17.77;;
50231;SDS011;36118;56.468;84.952;2023-05-07T08:36:42;38.38;;;17.00;;
50231;SDS011;36118;56.468;84.952;2023-05-07T08:41:48;28.23;;;16.77;;
50231;SDS011;36118;56.468;84.952;2023-05-07T08:46:56;24.23;;;17.60;;
50231;SDS011;36118;56.468;84.952;2023-05-07T08:52:00;30.35;;;17.52;;
50231;SDS011;36118;56.468;84.952;2023-05-07T08:57:03;35.58;;;18.55;;
50231;SDS011;36118;56.468;84.952;2023-05-07T09:02:09;30.30;;;18.40;;
50231;SDS011;36118;56.468;84.952;2023-05-07T09:07:13;35.53;;;18.52;;
50231;SDS011;36118;56.468;84.952;2023-05-07T09:12:18;32.57;;;18.60;;
50231;SDS011;36118;56.468;84.952;2023-05-07T09:17:21;30.23;;;17.63;;
50231;SDS011;36118;56.468;84.952;2023-05-07T09:22:27;32.33;;;17.80;;
50231;SDS011;36118;56.468;84.952;2023-05-07T09:27:35;34.28;;;17.50;;
50231;SDS011;36118;56.468;84.952;2023-05-07T09:32:39;30.20;;;18.30;;
50231;SDS011;36118;56.468;84.952;2023-05-07T09:37:48;32.30;;;19.83;;
50231;SDS011;36118;56.468;84.952;2023-05-07T09:42:51;36.80;;;19.60;;
50231;SDS011;36118;56.468;84.952;2023-05-07T09:47:57;33.80;;;20.27;;
50231;SDS011;36118;56.468;84.952;2023-05-07T09:53:03;39.08;;;21.52;;
50231;SDS011;36118;56.468;84.952;2023-05-07T09:58:06;36.40;;;21.88;;
50231;SDS011;36118;56.468;84.952;2023-05-07T10:03:09;30.40;;;21.13;;
50231;SDS011;36118;56.468;84.952;2023-05-07T10:08:22;29.83;;;21.17;;
50231;SDS011;36118;56.468;84.952;2023-05-07T10:13:29;34.28;;;21.65;;
50231;SDS011;36118;56.468;84.952;2023-05-07T10:18:34;33.42;;;21.17;;
50231;SDS011;36118;56.468;84.952;2023-05-07T10:23:44;28.98;;;20.55;;
50231;SDS011;36118;56.468;84.952;2023-05-07T10:33:52;31.30;;;21.88;;
50231;SDS011;36118;56.468;84.952;2023-05-07T10:38:56;32.47;;;22.42;;
50231;SDS011;36118;56.468;84.952;2023-05-07T10:44:00;36.55;;;22.38;;
50231;SDS011;36118;56.468;84.952;2023-05-07T10:49:07;35.70;;;23.65;;
50231;SDS011;36118;56.468;84.952;2023-05-07T10:54:32;35.83;;;23.23;;
50231;SDS011;36118;56.468;84.952;2023-05-07T10:59:43;34.97;;;23.98;;
50231;SDS011;36118;56.468;84.952;2023-05-07T11:05:22;37.17;;;25.27;;
50231;SDS011;36118;56.468;84.952;2023-05-07T11:10:50;37.55;;;25.38;;
50231;SDS011;36118;56.468;84.952;2023-05-07T11:16:22;35.15;;;25.15;;
50231;SDS011;36118;56.468;84.952;2023-05-07T11:21:53;39.45;;;25.13;;
50231;SDS011;36118;56.468;84.952;2023-05-07T11:27:11;39.80;;;24.98;;
50231;SDS011;36118;56.468;84.952;2023-05-07T11:32:15;34.22;;;24.67;;
50231;SDS011;36118;56.468;84.952;2023-05-07T11:37:25;35.10;;;25.58;;
50231;SDS011;36118;56.468;84.952;2023-05-07T11:42:37;36.03;;;25.58;;
50231;SDS011;36118;56.468;84.952;2023-05-07T11:47:41;41.58;;;26.50;;
50231;SDS011;36118;56.468;84.952;2023-05-07T11:52:51;35.40;;;25.10;;
50231;SDS011;36118;56.468;84.952;2023-05-07T11:57:55;43.28;;;26.75;;
50231;SDS011;36118;56.468;84.952;2023-05-07T12:03:02;44.05;;;27.05;;
50231;SDS011;36118;56.468;84.952;2023-05-07T12:08:07;50.70;;;27.33;;
50231;SDS011;36118;56.468;84.952;2023-05-07T12:13:14;48.88;;;28.05;;
50231;SDS011;36118;56.468;84.952;2023-05-07T12:18:21;43.28;;;27.70;;
50231;SDS011;36118;56.468;84.952;2023-05-07T12:23:24;43.22;;;29.17;;
50231;SDS011;36118;56.468;84.952;2023-05-07T12:28:27;58.33;;;28.20;;
50231;SDS011;36118;56.468;84.952;2023-05-07T12:33:30;54.35;;;28.40;;
50231;SDS011;36118;56.468;84.952;2023-05-07T12:38:35;55.05;;;29.65;;
50231;SDS011;36118;56.468;84.952;2023-05-07T12:43:39;73.85;;;28.58;;
50231;SDS011;36118;56.468;84.952;2023-05-07T12:48:45;49.05;;;26.77;;
50231;SDS011;36118;56.468;84.952;2023-05-07T12:53:48;60.22;;;28.50;;
50231;SDS011;36118;56.468;84.952;2023-05-07T12:58:52;52.03;;;29.67;;
50231;SDS011;36118;56.468;84.952;2023-05-07T13:04:00;57.28;;;30.20;;
50231;SDS011;36118;56.468;84.952;2023-05-07T13:09:04;63.53;;;30.10;;
50231;SDS011;36118;56.468;84.952;2023-05-07T13:14:07;54.42;;;30.30;;
50231;SDS011;36118;56.468;84.952;2023-05-07T13:19:10;50.92;;;29.70;;
50231;SDS011;36118;56.468;84.952;2023-05-07T13:24:13;49.17;;;30.15;;
50231;SDS011;36118;56.468;84.952;2023-05-07T13:29:16;63.60;;;30.95;;
50231;SDS011;36118;56.468;84.952;2023-05-07T13:34:19;49.85;;;30.67;;
50231;SDS011;36118;56.468;84.952;2023-05-07T13:39:22;49.78;;;30.73;;
50231;SDS011;36118;56.468;84.952;2023-05-07T13:44:25;57.17;;;31.30;;
50231;SDS011;36118;56.468;84.952;2023-05-07T13:49:28;56.65;;;31.73;;
50231;SDS011;36118;56.468;84.952;2023-05-07T13:54:32;59.72;;;33.20;;
50231;SDS011;36118;56.468;84.952;2023-05-07T13:59:34;73.63;;;33.80;;
50231;SDS011;36118;56.468;84.952;2023-05-07T14:04:37;63.15;;;34.15;;
50231;SDS011;36118;56.468;84.952;2023-05-07T14:09:40;59.75;;;34.60;;
50231;SDS011;36118;56.468;84.952;2023-05-07T14:14:43;62.53;;;35.30;;
50231;SDS011;36118;56.468;84.952;2023-05-07T14:19:47;60.35;;;34.75;;
50231;SDS011;36118;56.468;84.952;2023-05-07T14:24:50;68.57;;;37.45;;
50231;SDS011;36118;56.468;84.952;2023-05-07T14:30:08;70.45;;;38.47;;
50231;SDS011;36118;56.468;84.952;2023-05-07T14:35:11;67.22;;;37.83;;
50231;SDS011;36118;56.468;84.952;2023-05-07T14:40:15;67.20;;;37.85;;
50231;SDS011;36118;56.468;84.952;2023-05-07T14:45:18;80.28;;;37.97;;
50231;SDS011;36118;56.468;84.952;2023-05-07T14:50:21;64.88;;;38.25;;
50231;SDS011;36118;56.468;84.952;2023-05-07T14:55:24;62.50;;;36.50;;
50231;SDS011;36118;56.468;84.952;2023-05-07T15:00:27;68.78;;;36.88;;
50231;SDS011;36118;56.468;84.952;2023-05-07T15:05:30;75.70;;;37.03;;
50231;SDS011;36118;56.468;84.952;2023-05-07T15:10:37;59.03;;;36.20;;
50231;SDS011;36118;56.468;84.952;2023-05-07T15:15:44;64.75;;;36.13;;
50231;SDS011;36118;56.468;84.952;2023-05-07T15:20:47;57.58;;;36.60;;
50231;SDS011;36118;56.468;84.952;2023-05-07T15:25:50;65.22;;;36.55;;
50231;SDS011;36118;56.468;84.952;2023-05-07T15:30:56;59.00;;;36.03;;
50231;SDS011;36118;56.468;84.952;2023-05-07T15:36:01;63.78;;;33.30;;
50231;SDS011;36118;56.468;84.952;2023-05-07T15:41:05;55.47;;;31.60;;
50231;SDS011;36118;56.468;84.952;2023-05-07T15:46:08;47.08;;;29.27;;
50231;SDS011;36118;56.468;84.952;2023-05-07T15:51:11;51.28;;;29.52;;
50231;SDS011;36118;56.468;84.952;2023-05-07T15:56:14;49.95;;;26.88;;
50231;SDS011;36118;56.468;84.952;2023-05-07T16:01:17;39.15;;;27.02;;
50231;SDS011;36118;56.468;84.952;2023-05-07T16:06:20;42.60;;;26.10;;
50231;SDS011;36118;56.468;84.952;2023-05-07T16:11:23;40.40;;;25.88;;
50231;SDS011;36118;56.468;84.952;2023-05-07T16:16:27;43.22;;;24.25;;
50231;SDS011;36118;56.468;84.952;2023-05-07T16:26:36;40.13;;;25.50;;
50231;SDS011;36118;56.468;84.952;2023-05-07T16:31:39;42.00;;;26.23;;
50231;SDS011;36118;56.468;84.952;2023-05-07T16:36:42;39.95;;;26.92;;
50231;SDS011;36118;56.468;84.952;2023-05-07T16:41:45;37.85;;;25.23;;
50231;SDS011;36118;56.468;84.952;2023-05-07T16:46:52;45.42;;;25.58;;
50231;SDS011;36118;56.468;84.952;2023-05-07T16:51:54;41.13;;;25.73;;
50231;SDS011;36118;56.468;84.952;2023-05-07T16:56:58;46.72;;;24.20;;
50231;SDS011;36118;56.468;84.952;2023-05-07T17:02:01;42.17;;;24.27;;
50231;SDS011;36118;56.468;84.952;2023-05-07T17:07:04;38.78;;;22.20;;
50231;SDS011;36118;56.468;84.952;2023-05-07T17:12:08;39.58;;;22.67;;
50231;SDS011;36118;56.468;84.952;2023-05-07T17:17:11;37.65;;;22.48;;
50231;SDS011;36118;56.468;84.952;2023-05-07T17:22:13;40.63;;;22.42;;
50231;SDS011;36118;56.468;84.952;2023-05-07T17:27:16;52.22;;;24.27;;
50231;SDS011;36118;56.468;84.952;2023-05-07T17:32:19;58.05;;;27.13;;
50231;SDS011;36118;56.468;84.952;2023-05-07T17:37:22;57.80;;;31.08;;
50231;SDS011;36118;56.468;84.952;2023-05-07T17:42:25;66.15;;;34.00;;
50231;SDS011;36118;56.468;84.952;2023-05-07T17:47:29;45.67;;;30.70;;
50231;SDS011;36118;56.468;84.952;2023-05-07T17:52:32;45.28;;;30.13;;
50231;SDS011;36118;56.468;84.952;2023-05-07T17:57:35;51.47;;;32.42;;
50231;SDS011;36118;56.468;84.952;2023-05-07T18:02:38;62.75;;;32.83;;
50231;SDS011;36118;56.468;84.952;2023-05-07T18:07:43;58.47;;;32.03;;
50231;SDS011;36118;56.468;84.952;2023-05-07T18:12:46;62.72;;;33.30;;
50231;SDS011;36118;56.468;84.952;2023-05-07T18:17:49;70.30;;;34.05;;
50231;SDS011;36118;56.468;84.952;2023-05-07T18:22:51;62.45;;;33.30;;
50231;SDS011;36118;56.468;84.952;2023-05-07T18:27:55;60.00;;;30.63;;
50231;SDS011;36118;56.468;84.952;2023-05-07T18:32:58;54.90;;;29.60;;
50231;SDS011;36118;56.468;84.952;2023-05-07T18:38:01;56.05;;;30.52;;
50231;SDS011;36118;56.468;84.952;2023-05-07T18:43:04;54.50;;;30.35;;
50231;SDS011;36118;56.468;84.952;2023-05-07T18:48:08;55.28;;;30.58;;
50231;SDS011;36118;56.468;84.952;2023-05-07T18:53:11;58.47;;;30.52;;
50231;SDS011;36118;56.468;84.952;2023-05-07T18:58:14;58.08;;;30.60;;
50231;SDS011;36118;56.468;84.952;2023-05-07T19:03:17;54.95;;;30.95;;
50231;SDS011;36118;56.468;84.952;2023-05-07T19:08:20;51.45;;;29.92;;
50231;SDS011;36118;56.468;84.952;2023-05-07T19:13:23;48.38;;;29.75;;
50231;SDS011;36118;56.468;84.952;2023-05-07T19:18:29;44.85;;;29.17;;
50231;SDS011;36118;56.468;84.952;2023-05-07T19:23:33;52.15;;;29.58;;
50231;SDS011;36118;56.468;84.952;2023-05-07T19:28:42;44.97;;;29.60;;
50231;SDS011;36118;56.468;84.952;2023-05-07T19:33:49;49.88;;;28.90;;
50231;SDS011;36118;56.468;84.952;2023-05-07T19:38:52;53.95;;;27.60;;
50231;SDS011;36118;56.468;84.952;2023-05-07T19:43:55;47.45;;;28.33;;
50231;SDS011;36118;56.468;84.952;2023-05-07T19:48:58;51.97;;;28.50;;
50231;SDS011;36118;56.468;84.952;2023-05-07T19:54:02;51.60;;;27.10;;
50231;SDS011;36118;56.468;84.952;2023-05-07T19:59:05;46.35;;;26.27;;
50231;SDS011;36118;56.468;84.952;2023-05-07T20:04:10;47.55;;;25.95;;
50231;SDS011;36118;56.468;84.952;2023-05-07T20:09:13;41.83;;;26.20;;
50231;SDS011;36118;56.468;84.952;2023-05-07T20:14:16;43.05;;;25.20;;
50231;SDS011;36118;56.468;84.952;2023-05-07T20:19:19;39.63;;;24.85;;
50231;SDS011;36118;56.468;84.952;2023-05-07T20:24:23;42.65;;;25.92;;
50231;SDS011;36118;56.468;84.952;2023-05-07T20:29:26;46.30;;;26.40;;
50231;SDS011;36118;56.468;84.952;2023-05-07T20:34:29;48.22;;;26.48;;
50231;SDS011;36118;56.468;84.952;2023-05-07T20:39:32;48.72;;;25.90;;
50231;SDS011;36118;56.468;84.952;2023-05-07T20:44:35;48.30;;;27.33;;
50231;SDS011;36118;56.468;84.952;2023-05-07T20:49:38;47.10;;;26.63;;
50231;SDS011;36118;56.468;84.952;2023-05-07T20:54:41;53.70;;;27.48;;
50231;SDS011;36118;56.468;84.952;2023-05-07T20:59:45;52.95;;;27.45;;
50231;SDS011;36118;56.468;84.952;2023-05-07T21:04:48;65.10;;;29.23;;
50231;SDS011;36118;56.468;84.952;2023-05-07T21:09:53;56.30;;;28.97;;
50231;SDS011;36118;56.468;84.952;2023-05-07T21:14:56;56.33;;;27.40;;
50231;SDS011;36118;56.468;84.952;2023-05-07T21:19:59;51.50;;;28.27;;
50231;SDS011;36118;56.468;84.952;2023-05-07T21:30:08;54.88;;;27.83;;
50231;SDS011;36118;56.468;84.952;2023-05-07T21:35:12;59.22;;;28.58;;
50231;SDS011;36118;56.468;84.952;2023-05-07T21:40:15;67.25;;;28.85;;
50231;SDS011;36118;56.468;84.952;2023-05-07T21:45:18;51.70;;;27.98;;
50231;SDS011;36118;56.468;84.952;2023-05-07T21:50:21;57.30;;;28.30;;
50231;SDS011;36118;56.468;84.952;2023-05-07T21:55:24;56.15;;;28.77;;
50231;SDS011;36118;56.468;84.952;2023-05-07T22:00:27;49.40;;;29.05;;
50231;SDS011;36118;56.468;84.952;2023-05-07T22:05:30;56.28;;;29.48;;
50231;SDS011;36118;56.468;84.952;2023-05-07T22:10:33;59.22;;;28.85;;
50231;SDS011;36118;56.468;84.952;2023-05-07T22:15:40;67.30;;;28.85;;
50231;SDS011;36118;56.468;84.952;2023-05-07T22:20:57;56.22;;;29.67;;
50231;SDS011;36118;56.468;84.952;2023-05-07T22:26:00;50.30;;;27.60;;
50231;SDS011;36118;56.468;84.952;2023-05-07T22:31:03;73.80;;;28.90;;
50231;SDS011;36118;56.468;84.952;2023-05-07T22:36:06;52.95;;;28.52;;
50231;SDS011;36118;56.468;84.952;2023-05-07T22:41:09;47.65;;;26.70;;
50231;SDS011;36118;56.468;84.952;2023-05-07T22:46:12;49.08;;;26.48;;
50231;SDS011;36118;56.468;84.952;2023-05-07T22:51:15;54.78;;;27.88;;
50231;SDS011;36118;56.468;84.952;2023-05-07T22:56:18;46.90;;;27.27;;
50231;SDS011;36118;56.468;84.952;2023-05-07T23:01:21;43.42;;;27.35;;
50231;SDS011;36118;56.468;84.952;2023-05-07T23:06:24;46.40;;;27.30;;
50231;SDS011;36118;56.468;84.952;2023-05-07T23:11:28;46.70;;;28.10;;
50231;SDS011;36118;56.468;84.952;2023-05-07T23:16:31;46.70;;;26.75;;
50231;SDS011;36118;56.468;84.952;2023-05-07T23:21:34;57.30;;;27.50;;
50231;SDS011;36118;56.468;84.952;2023-05-07T23:26:37;51.05;;;27.42;;
50231;SDS011;36118;56.468;84.952;2023-05-07T23:31:40;45.63;;;28.13;;
50231;SDS011;36118;56.468;84.952;2023-05-07T23:36:43;59.05;;;28.15;;
50231;SDS011;36118;56.468;84.952;2023-05-07T23:41:46;46.70;;;26.77;;
50231;SDS011;36118;56.468;84.952;2023-05-07T23:46:49;48.47;;;27.10;;
50231;SDS011;36118;56.468;84.952;2023-05-07T23:51:52;48.00;;;27.05;;
50231;SDS011;36118;56.468;84.952;2023-05-07T23:56:55;46.45;;;26.98;;
